FHV1116 KROW-KMEM
Flight info
| Callsign | FHV1116 |
|---|---|
| Flight time | 1h 33m |
| Altitude | 39000 |
| Route | TXO J74 IRW FSM BRBBQ3 |
| Aircraft | C750/M-SBDE3FGHRWXY/S |
Departure
| Time | 2026-05-04 22:52 |
|---|---|
| Airport | Roswell Air Center Airport (KROW) |
Arrival
| Time | 2026-05-05 00:25 |
|---|---|
| Airport | Memphis International Airport (KMEM) |
| Time | Latitude | Longitude | Altitude | Speed | Heading |
|---|---|---|---|---|---|
| 2026-05-04 22:44 | 33.30623 | -104.52866 | 3660 ft | 0 kts | 49° |
| 2026-05-04 22:48 | 33.30627 | -104.52860 | 3660 ft | 0 kts | 50° |
| 2026-05-04 22:48 | 33.30610 | -104.52856 | 3660 ft | 7 kts | 153° |
| 2026-05-04 22:48 | 33.30559 | -104.52759 | 3658 ft | 19 kts | 115° |
| 2026-05-04 22:48 | 33.30536 | -104.52608 | 3655 ft | 19 kts | 97° |
| 2026-05-04 22:49 | 33.30512 | -104.52412 | 3651 ft | 29 kts | 98° |
| 2026-05-04 22:49 | 33.30480 | -104.52129 | 3647 ft | 38 kts | 96° |
| 2026-05-04 22:49 | 33.30500 | -104.51821 | 3643 ft | 36 kts | 62° |
| 2026-05-04 22:49 | 33.30653 | -104.51627 | 3637 ft | 31 kts | 45° |
| 2026-05-04 22:50 | 33.30799 | -104.51447 | 3636 ft | 29 kts | 47° |
| 2026-05-04 22:50 | 33.30941 | -104.51284 | 3633 ft | 28 kts | 45° |
| 2026-05-04 22:50 | 33.31072 | -104.51127 | 3631 ft | 26 kts | 44° |
| 2026-05-04 22:50 | 33.31200 | -104.50993 | 3629 ft | 24 kts | 38° |
| 2026-05-04 22:51 | 33.31266 | -104.50863 | 3627 ft | 16 kts | 128° |
| 2026-05-04 22:51 | 33.31190 | -104.50773 | 3629 ft | 15 kts | 134° |
| 2026-05-04 22:51 | 33.31124 | -104.50702 | 3623 ft | 10 kts | 177° |
| 2026-05-04 22:51 | 33.31093 | -104.50726 | 3629 ft | 0 kts | 229° |
| 2026-05-04 22:52 | 33.30915 | -104.50940 | 3632 ft | 88 kts | 226° |
| 2026-05-04 22:52 | 33.30305 | -104.51666 | 3731 ft | 141 kts | 227° |
| 2026-05-04 22:52 | 33.29567 | -104.52452 | 4210 ft | 147 kts | 219° |
| 2026-05-04 22:52 | 33.28678 | -104.53172 | 4585 ft | 160 kts | 211° |
| 2026-05-04 22:53 | 33.27713 | -104.53850 | 5290 ft | 160 kts | 209° |
| 2026-05-04 22:53 | 33.26640 | -104.54227 | 5779 ft | 179 kts | 181° |
| 2026-05-04 22:53 | 33.25292 | -104.53816 | 5848 ft | 226 kts | 154° |
| 2026-05-04 22:53 | 33.24197 | -104.52303 | 6096 ft | 269 kts | 118° |
| 2026-05-04 22:54 | 33.24007 | -104.49997 | 6712 ft | 291 kts | 81° |
| 2026-05-04 22:54 | 33.24948 | -104.47864 | 7612 ft | 297 kts | 48° |
| 2026-05-04 22:54 | 33.26531 | -104.46293 | 8645 ft | 296 kts | 34° |
| 2026-05-04 22:54 | 33.28176 | -104.44789 | 9664 ft | 301 kts | 37° |
| 2026-05-04 22:55 | 33.29682 | -104.42993 | 10375 ft | 314 kts | 45° |
| 2026-05-04 22:55 | 33.31146 | -104.40913 | 10652 ft | 340 kts | 47° |
| 2026-05-04 22:55 | 33.32761 | -104.38699 | 10755 ft | 366 kts | 45° |
| 2026-05-04 22:55 | 33.34554 | -104.36452 | 11280 ft | 374 kts | 43° |
| 2026-05-04 22:56 | 33.36348 | -104.34191 | 12092 ft | 377 kts | 44° |
| 2026-05-04 22:56 | 33.38126 | -104.31847 | 12733 ft | 383 kts | 45° |
| 2026-05-04 22:56 | 33.39309 | -104.30274 | 13178 ft | 386 kts | 44° |
| 2026-05-04 22:56 | 33.41133 | -104.27894 | 13898 ft | 388 kts | 43° |
| 2026-05-04 22:57 | 33.42981 | -104.25517 | 14498 ft | 393 kts | 43° |
| 2026-05-04 22:57 | 33.44840 | -104.23103 | 15102 ft | 397 kts | 44° |
| 2026-05-04 22:57 | 33.46708 | -104.20653 | 15726 ft | 400 kts | 44° |
| 2026-05-04 22:57 | 33.48597 | -104.18182 | 16347 ft | 405 kts | 44° |
| 2026-05-04 22:58 | 33.50515 | -104.15686 | 17002 ft | 409 kts | 44° |
| 2026-05-04 22:58 | 33.52446 | -104.13167 | 17684 ft | 413 kts | 44° |
| 2026-05-04 22:58 | 33.54399 | -104.10611 | 18320 ft | 418 kts | 44° |
| 2026-05-04 22:58 | 33.56371 | -104.08027 | 18951 ft | 422 kts | 44° |
| 2026-05-04 22:59 | 33.58363 | -104.05422 | 19576 ft | 426 kts | 43° |
| 2026-05-04 22:59 | 33.60375 | -104.02788 | 20214 ft | 431 kts | 43° |
| 2026-05-04 22:59 | 33.62411 | -104.00117 | 20856 ft | 436 kts | 43° |
| 2026-05-04 22:59 | 33.64464 | -103.97422 | 21502 ft | 440 kts | 43° |
| 2026-05-04 23:00 | 33.66542 | -103.94694 | 22141 ft | 445 kts | 43° |
| 2026-05-04 23:00 | 33.68640 | -103.91937 | 22791 ft | 449 kts | 43° |
| 2026-05-04 23:00 | 33.70757 | -103.89153 | 23404 ft | 454 kts | 43° |
| 2026-05-04 23:00 | 33.72896 | -103.86337 | 23914 ft | 459 kts | 42° |
| 2026-05-04 23:01 | 33.75062 | -103.83485 | 24407 ft | 465 kts | 42° |
| 2026-05-04 23:01 | 33.77255 | -103.80594 | 24897 ft | 470 kts | 42° |
| 2026-05-04 23:01 | 33.79468 | -103.77673 | 25390 ft | 475 kts | 42° |
| 2026-05-04 23:01 | 33.81706 | -103.74718 | 25875 ft | 480 kts | 42° |
| 2026-05-04 23:02 | 33.83965 | -103.71733 | 26356 ft | 486 kts | 41° |
| 2026-05-04 23:02 | 33.86253 | -103.68707 | 26837 ft | 491 kts | 41° |
| 2026-05-04 23:02 | 33.88559 | -103.65653 | 27302 ft | 496 kts | 41° |
| 2026-05-04 23:02 | 33.90892 | -103.62560 | 27784 ft | 501 kts | 41° |
| 2026-05-04 23:03 | 33.93249 | -103.59436 | 28256 ft | 506 kts | 41° |
| 2026-05-04 23:03 | 33.95626 | -103.56280 | 28709 ft | 511 kts | 41° |
| 2026-05-04 23:03 | 33.98029 | -103.53088 | 29160 ft | 516 kts | 41° |
| 2026-05-04 23:03 | 34.00452 | -103.49865 | 29613 ft | 521 kts | 40° |
| 2026-05-04 23:04 | 34.02893 | -103.46615 | 30017 ft | 526 kts | 40° |
| 2026-05-04 23:04 | 34.05351 | -103.43338 | 30480 ft | 528 kts | 40° |
| 2026-05-04 23:04 | 34.07816 | -103.40048 | 31054 ft | 527 kts | 40° |
| 2026-05-04 23:04 | 34.10263 | -103.36777 | 31712 ft | 524 kts | 40° |
| 2026-05-04 23:05 | 34.12666 | -103.33568 | 32405 ft | 521 kts | 40° |
| 2026-05-04 23:05 | 34.15089 | -103.30331 | 33123 ft | 518 kts | 40° |
| 2026-05-04 23:05 | 34.17494 | -103.27112 | 33820 ft | 515 kts | 39° |
| 2026-05-04 23:05 | 34.19889 | -103.23902 | 34410 ft | 513 kts | 39° |
| 2026-05-04 23:06 | 34.22276 | -103.20702 | 34970 ft | 512 kts | 39° |
| 2026-05-04 23:06 | 34.24658 | -103.17506 | 35526 ft | 511 kts | 39° |
| 2026-05-04 23:06 | 34.27029 | -103.14319 | 36129 ft | 510 kts | 39° |
| 2026-05-04 23:06 | 34.29401 | -103.11129 | 36725 ft | 509 kts | 39° |
| 2026-05-04 23:07 | 34.31762 | -103.07953 | 37315 ft | 508 kts | 39° |
| 2026-05-04 23:07 | 34.34119 | -103.04777 | 37932 ft | 506 kts | 39° |
| 2026-05-04 23:07 | 34.36468 | -103.01609 | 38522 ft | 505 kts | 38° |
| 2026-05-04 23:07 | 34.38812 | -102.98447 | 38865 ft | 508 kts | 38° |
| 2026-05-04 23:08 | 34.41205 | -102.95230 | 38836 ft | 520 kts | 39° |
| 2026-05-04 23:08 | 34.43645 | -102.91936 | 38829 ft | 531 kts | 39° |
| 2026-05-04 23:08 | 34.46097 | -102.88527 | 38817 ft | 545 kts | 43° |
| 2026-05-04 23:08 | 34.48297 | -102.84691 | 38793 ft | 563 kts | 52° |
| 2026-05-04 23:09 | 34.50108 | -102.80417 | 38770 ft | 578 kts | 60° |
| 2026-05-04 23:09 | 34.51478 | -102.75780 | 38751 ft | 590 kts | 69° |
| 2026-05-04 23:09 | 34.53132 | -102.65942 | 38723 ft | 599 kts | 77° |
| 2026-05-04 23:10 | 34.54552 | -102.56019 | 38701 ft | 595 kts | 73° |
| 2026-05-04 23:10 | 34.56642 | -102.46326 | 38712 ft | 595 kts | 71° |
| 2026-05-04 23:11 | 34.58307 | -102.36460 | 38719 ft | 597 kts | 75° |
| 2026-05-04 23:11 | 34.60184 | -102.26676 | 38712 ft | 595 kts | 71° |
| 2026-05-04 23:12 | 34.61952 | -102.16837 | 38719 ft | 597 kts | 74° |
| 2026-05-04 23:12 | 34.63741 | -102.07001 | 38701 ft | 598 kts | 72° |
| 2026-05-04 23:13 | 34.65542 | -101.97151 | 38676 ft | 598 kts | 74° |
| 2026-05-04 23:13 | 34.67283 | -101.87335 | 38665 ft | 598 kts | 72° |
| 2026-05-04 23:14 | 34.69084 | -101.77459 | 38661 ft | 599 kts | 73° |
| 2026-05-04 23:14 | 34.70821 | -101.67564 | 38666 ft | 599 kts | 73° |
| 2026-05-04 23:15 | 34.72600 | -101.57671 | 38661 ft | 599 kts | 73° |
| 2026-05-04 23:15 | 34.74333 | -101.47754 | 38658 ft | 600 kts | 73° |
| 2026-05-04 23:16 | 34.76090 | -101.37840 | 38653 ft | 600 kts | 73° |
| 2026-05-04 23:16 | 34.77814 | -101.27915 | 38647 ft | 600 kts | 73° |
| 2026-05-04 23:17 | 34.79551 | -101.17973 | 38646 ft | 600 kts | 73° |
| 2026-05-04 23:17 | 34.81269 | -101.08022 | 38647 ft | 602 kts | 73° |
| 2026-05-04 23:18 | 34.82989 | -100.98048 | 38637 ft | 602 kts | 73° |
| 2026-05-04 23:18 | 34.84697 | -100.88066 | 38642 ft | 603 kts | 73° |
| 2026-05-04 23:19 | 34.86391 | -100.78129 | 38640 ft | 603 kts | 73° |
| 2026-05-04 23:19 | 34.88088 | -100.68122 | 38636 ft | 604 kts | 73° |
| 2026-05-04 23:20 | 34.89770 | -100.58144 | 38634 ft | 604 kts | 73° |
| 2026-05-04 23:20 | 34.91454 | -100.48108 | 38630 ft | 605 kts | 73° |
| 2026-05-04 23:21 | 34.93131 | -100.38056 | 38625 ft | 605 kts | 73° |
| 2026-05-04 23:21 | 34.94802 | -100.27992 | 38621 ft | 606 kts | 73° |
| 2026-05-04 23:22 | 34.96464 | -100.17917 | 38619 ft | 606 kts | 73° |
| 2026-05-04 23:22 | 34.98121 | -100.07828 | 38612 ft | 607 kts | 73° |
| 2026-05-04 23:23 | 34.99770 | -99.97730 | 38610 ft | 608 kts | 73° |
| 2026-05-04 23:23 | 35.01411 | -99.87627 | 38610 ft | 608 kts | 73° |
| 2026-05-04 23:24 | 35.03046 | -99.77499 | 38614 ft | 608 kts | 73° |
| 2026-05-04 23:24 | 35.04614 | -99.67737 | 38608 ft | 609 kts | 73° |
| 2026-05-04 23:25 | 35.06235 | -99.57591 | 38608 ft | 609 kts | 73° |
| 2026-05-04 23:25 | 35.07848 | -99.47436 | 38609 ft | 610 kts | 73° |
| 2026-05-04 23:26 | 35.09453 | -99.37275 | 38619 ft | 609 kts | 73° |
| 2026-05-04 23:26 | 35.11050 | -99.27110 | 38634 ft | 610 kts | 73° |
| 2026-05-04 23:27 | 35.12637 | -99.16940 | 38648 ft | 610 kts | 73° |
| 2026-05-04 23:27 | 35.14216 | -99.06769 | 38646 ft | 610 kts | 73° |
| 2026-05-04 23:28 | 35.15784 | -98.96618 | 38647 ft | 609 kts | 73° |
| 2026-05-04 23:28 | 35.17346 | -98.86440 | 38632 ft | 610 kts | 73° |
| 2026-05-04 23:29 | 35.18898 | -98.76262 | 38629 ft | 609 kts | 73° |
| 2026-05-04 23:29 | 35.20400 | -98.66362 | 38626 ft | 609 kts | 73° |
| 2026-05-04 23:30 | 35.21933 | -98.56194 | 38633 ft | 608 kts | 74° |
| 2026-05-04 23:30 | 35.23458 | -98.46030 | 38634 ft | 608 kts | 74° |
| 2026-05-04 23:31 | 35.24972 | -98.35863 | 38643 ft | 607 kts | 74° |
| 2026-05-04 23:31 | 35.26468 | -98.25771 | 38660 ft | 608 kts | 74° |
| 2026-05-04 23:32 | 35.27964 | -98.15609 | 38668 ft | 607 kts | 74° |
| 2026-05-04 23:32 | 35.29451 | -98.05446 | 38669 ft | 607 kts | 74° |
| 2026-05-04 23:33 | 35.30153 | -98.00630 | 38678 ft | 606 kts | 74° |
| 2026-05-04 23:33 | 35.31628 | -97.90462 | 38683 ft | 607 kts | 74° |
| 2026-05-04 23:34 | 35.33094 | -97.80288 | 38683 ft | 607 kts | 74° |
| 2026-05-04 23:34 | 35.34553 | -97.70111 | 38710 ft | 607 kts | 74° |
| 2026-05-04 23:35 | 35.35886 | -97.59901 | 38684 ft | 612 kts | 79° |
| 2026-05-04 23:35 | 35.36118 | -97.49344 | 38705 ft | 626 kts | 85° |
| 2026-05-04 23:36 | 35.36333 | -97.38646 | 38725 ft | 631 kts | 82° |
| 2026-05-04 23:36 | 35.36587 | -97.27863 | 38711 ft | 633 kts | 84° |
| 2026-05-04 23:37 | 35.36751 | -97.17087 | 38716 ft | 632 kts | 83° |
| 2026-05-04 23:37 | 35.37002 | -97.06328 | 38746 ft | 632 kts | 84° |
| 2026-05-04 23:38 | 35.37146 | -96.95552 | 38750 ft | 631 kts | 83° |
| 2026-05-04 23:38 | 35.37367 | -96.84804 | 38746 ft | 632 kts | 84° |
| 2026-05-04 23:39 | 35.37507 | -96.74036 | 38744 ft | 631 kts | 84° |
| 2026-05-04 23:39 | 35.37693 | -96.63287 | 38744 ft | 631 kts | 84° |
| 2026-05-04 23:40 | 35.37829 | -96.52539 | 38741 ft | 631 kts | 84° |
| 2026-05-04 23:40 | 35.37982 | -96.41867 | 38741 ft | 630 kts | 84° |
| 2026-05-04 23:41 | 35.38109 | -96.31128 | 38738 ft | 630 kts | 84° |
| 2026-05-04 23:41 | 35.38232 | -96.20677 | 38741 ft | 630 kts | 84° |
| 2026-05-04 23:42 | 35.38347 | -96.09947 | 38744 ft | 629 kts | 84° |
| 2026-05-04 23:42 | 35.38451 | -95.99222 | 38748 ft | 629 kts | 84° |
| 2026-05-04 23:43 | 35.38548 | -95.88508 | 38750 ft | 629 kts | 84° |
| 2026-05-04 23:43 | 35.38633 | -95.77813 | 38753 ft | 627 kts | 84° |
| 2026-05-04 23:44 | 35.38711 | -95.67111 | 38757 ft | 628 kts | 84° |
| 2026-05-04 23:44 | 35.38765 | -95.58205 | 38760 ft | 628 kts | 84° |
| 2026-05-04 23:45 | 35.38826 | -95.47511 | 38768 ft | 628 kts | 84° |
| 2026-05-04 23:45 | 35.38875 | -95.36805 | 38774 ft | 628 kts | 84° |
| 2026-05-04 23:46 | 35.38917 | -95.26334 | 38774 ft | 628 kts | 84° |
| 2026-05-04 23:46 | 35.38944 | -95.15708 | 38772 ft | 627 kts | 84° |
| 2026-05-04 23:47 | 35.38969 | -95.05025 | 38772 ft | 627 kts | 83° |
| 2026-05-04 23:47 | 35.38979 | -94.94339 | 38793 ft | 627 kts | 84° |
| 2026-05-04 23:48 | 35.38983 | -94.83659 | 38793 ft | 627 kts | 83° |
| 2026-05-04 23:48 | 35.38976 | -94.72977 | 38794 ft | 626 kts | 83° |
| 2026-05-04 23:49 | 35.38961 | -94.62411 | 38794 ft | 626 kts | 83° |
| 2026-05-04 23:49 | 35.38936 | -94.51747 | 38799 ft | 626 kts | 83° |
| 2026-05-04 23:50 | 35.38901 | -94.41087 | 38801 ft | 625 kts | 83° |
| 2026-05-04 23:50 | 35.38865 | -94.30969 | 38806 ft | 624 kts | 83° |
| 2026-05-04 23:51 | 35.39140 | -94.25717 | 38777 ft | 613 kts | 74° |
| 2026-05-04 23:51 | 35.39900 | -94.20622 | 38789 ft | 604 kts | 68° |
| 2026-05-04 23:51 | 35.41905 | -94.10665 | 38805 ft | 603 kts | 67° |
| 2026-05-04 23:52 | 35.43557 | -94.00604 | 38801 ft | 605 kts | 69° |
| 2026-05-04 23:52 | 35.45436 | -93.90598 | 38805 ft | 601 kts | 66° |
| 2026-05-04 23:53 | 35.47154 | -93.80619 | 38805 ft | 603 kts | 69° |
| 2026-05-04 23:53 | 35.48942 | -93.70596 | 38810 ft | 601 kts | 67° |
| 2026-05-04 23:54 | 35.50707 | -93.60541 | 38810 ft | 603 kts | 68° |
| 2026-05-04 23:54 | 35.52449 | -93.50494 | 38813 ft | 601 kts | 67° |
| 2026-05-04 23:55 | 35.54213 | -93.40442 | 38821 ft | 602 kts | 68° |
| 2026-05-04 23:56 | 35.56751 | -93.25693 | 38825 ft | 602 kts | 67° |
| 2026-05-04 23:56 | 35.58475 | -93.15618 | 38827 ft | 602 kts | 68° |
| 2026-05-04 23:57 | 35.60181 | -93.05612 | 38827 ft | 603 kts | 67° |
| 2026-05-04 23:57 | 35.61898 | -92.95527 | 38827 ft | 605 kts | 68° |
| 2026-05-04 23:58 | 35.63596 | -92.85414 | 38834 ft | 603 kts | 68° |
| 2026-05-04 23:58 | 35.65301 | -92.75304 | 38843 ft | 604 kts | 68° |
| 2026-05-04 23:59 | 35.66979 | -92.65198 | 38851 ft | 602 kts | 68° |
| 2026-05-04 23:59 | 35.68668 | -92.55089 | 38850 ft | 605 kts | 68° |
| 2026-05-05 00:00 | 35.70323 | -92.45019 | 38856 ft | 607 kts | 68° |
| 2026-05-05 00:00 | 35.71961 | -92.34994 | 38048 ft | 591 kts | 68° |
| 2026-05-05 00:00 | 35.72756 | -92.30105 | 37309 ft | 574 kts | 68° |
| 2026-05-05 00:01 | 35.73533 | -92.25361 | 36569 ft | 560 kts | 68° |
| 2026-05-05 00:01 | 35.74298 | -92.20705 | 35852 ft | 549 kts | 68° |
| 2026-05-05 00:01 | 35.75035 | -92.16195 | 35150 ft | 545 kts | 68° |
| 2026-05-05 00:01 | 35.75776 | -92.11622 | 34448 ft | 545 kts | 69° |
| 2026-05-05 00:02 | 35.76522 | -92.07018 | 33718 ft | 551 kts | 70° |
| 2026-05-05 00:02 | 35.77266 | -92.02393 | 32999 ft | 550 kts | 70° |
| 2026-05-05 00:02 | 35.77999 | -91.97787 | 32279 ft | 545 kts | 71° |
| 2026-05-05 00:02 | 35.78728 | -91.93229 | 31563 ft | 540 kts | 72° |
| 2026-05-05 00:03 | 35.79454 | -91.88711 | 30850 ft | 535 kts | 72° |
| 2026-05-05 00:03 | 35.80171 | -91.84228 | 30143 ft | 530 kts | 73° |
| 2026-05-05 00:03 | 35.80868 | -91.79814 | 29394 ft | 520 kts | 74° |
| 2026-05-05 00:03 | 35.81210 | -91.75405 | 28647 ft | 519 kts | 88° |
| 2026-05-05 00:04 | 35.80684 | -91.71028 | 28006 ft | 516 kts | 103° |
| 2026-05-05 00:04 | 35.79401 | -91.66923 | 27377 ft | 510 kts | 114° |
| 2026-05-05 00:04 | 35.77938 | -91.62964 | 26713 ft | 505 kts | 115° |
| 2026-05-05 00:04 | 35.76469 | -91.59080 | 26046 ft | 497 kts | 115° |
| 2026-05-05 00:05 | 35.75048 | -91.55240 | 25389 ft | 489 kts | 114° |
| 2026-05-05 00:05 | 35.73685 | -91.51491 | 24755 ft | 481 kts | 114° |
| 2026-05-05 00:05 | 35.72316 | -91.47774 | 24127 ft | 473 kts | 115° |
| 2026-05-05 00:05 | 35.70952 | -91.44130 | 23504 ft | 466 kts | 115° |
| 2026-05-05 00:06 | 35.69611 | -91.40532 | 22851 ft | 458 kts | 115° |
| 2026-05-05 00:06 | 35.68300 | -91.36982 | 22252 ft | 454 kts | 114° |
| 2026-05-05 00:06 | 35.66997 | -91.33464 | 21659 ft | 450 kts | 115° |
| 2026-05-05 00:06 | 35.65699 | -91.29987 | 21071 ft | 443 kts | 115° |
| 2026-05-05 00:07 | 35.64430 | -91.26590 | 20500 ft | 430 kts | 115° |
| 2026-05-05 00:07 | 35.63197 | -91.23280 | 19948 ft | 423 kts | 115° |
| 2026-05-05 00:07 | 35.61979 | -91.20016 | 19396 ft | 418 kts | 115° |
| 2026-05-05 00:07 | 35.60770 | -91.16783 | 18850 ft | 415 kts | 115° |
| 2026-05-05 00:08 | 35.59567 | -91.13574 | 18311 ft | 412 kts | 115° |
| 2026-05-05 00:08 | 35.58375 | -91.10390 | 17723 ft | 408 kts | 115° |
| 2026-05-05 00:08 | 35.57195 | -91.07241 | 17188 ft | 404 kts | 115° |
| 2026-05-05 00:08 | 35.56038 | -91.04161 | 16664 ft | 401 kts | 115° |
| 2026-05-05 00:09 | 35.54862 | -91.01032 | 16129 ft | 397 kts | 115° |
| 2026-05-05 00:09 | 35.53725 | -90.98010 | 15615 ft | 393 kts | 115° |
| 2026-05-05 00:09 | 35.52568 | -90.94936 | 15093 ft | 390 kts | 115° |
| 2026-05-05 00:09 | 35.51435 | -90.91929 | 14579 ft | 386 kts | 115° |
| 2026-05-05 00:10 | 35.50328 | -90.88984 | 14074 ft | 374 kts | 115° |
| 2026-05-05 00:10 | 35.49378 | -90.86048 | 13590 ft | 367 kts | 112° |
| 2026-05-05 00:10 | 35.48400 | -90.83186 | 13162 ft | 362 kts | 114° |
| 2026-05-05 00:10 | 35.47409 | -90.80355 | 12694 ft | 361 kts | 113° |
| 2026-05-05 00:11 | 35.46461 | -90.77511 | 12222 ft | 357 kts | 112° |
| 2026-05-05 00:11 | 35.45560 | -90.74752 | 11759 ft | 340 kts | 113° |
| 2026-05-05 00:11 | 35.44685 | -90.72141 | 11309 ft | 323 kts | 114° |
| 2026-05-05 00:11 | 35.43838 | -90.69646 | 10893 ft | 312 kts | 114° |
| 2026-05-05 00:12 | 35.43023 | -90.67225 | 10492 ft | 302 kts | 114° |
| 2026-05-05 00:12 | 35.42248 | -90.64909 | 10108 ft | 294 kts | 114° |
| 2026-05-05 00:12 | 35.41480 | -90.62610 | 9968 ft | 279 kts | 114° |
| 2026-05-05 00:12 | 35.40851 | -90.60418 | 9952 ft | 278 kts | 109° |
| 2026-05-05 00:13 | 35.40245 | -90.58042 | 9708 ft | 301 kts | 109° |
| 2026-05-05 00:13 | 35.39631 | -90.55590 | 9324 ft | 292 kts | 109° |
| 2026-05-05 00:13 | 35.39062 | -90.53260 | 8946 ft | 286 kts | 109° |
| 2026-05-05 00:13 | 35.38509 | -90.50942 | 8556 ft | 281 kts | 109° |
| 2026-05-05 00:14 | 35.37980 | -90.48655 | 8177 ft | 277 kts | 109° |
| 2026-05-05 00:14 | 35.37471 | -90.46395 | 7796 ft | 274 kts | 109° |
| 2026-05-05 00:14 | 35.36977 | -90.44148 | 7419 ft | 272 kts | 109° |
| 2026-05-05 00:14 | 35.36494 | -90.41918 | 7056 ft | 269 kts | 109° |
| 2026-05-05 00:15 | 35.36025 | -90.39711 | 6698 ft | 267 kts | 108° |
| 2026-05-05 00:15 | 35.35570 | -90.37521 | 6346 ft | 265 kts | 108° |
| 2026-05-05 00:15 | 35.35127 | -90.35349 | 5972 ft | 261 kts | 108° |
| 2026-05-05 00:15 | 35.34683 | -90.33159 | 5597 ft | 276 kts | 108° |
| 2026-05-05 00:16 | 35.34208 | -90.30836 | 5246 ft | 283 kts | 108° |
| 2026-05-05 00:16 | 35.33729 | -90.28507 | 4973 ft | 279 kts | 108° |
| 2026-05-05 00:16 | 35.33267 | -90.26242 | 4985 ft | 274 kts | 108° |
| 2026-05-05 00:16 | 35.32792 | -90.23938 | 4993 ft | 272 kts | 108° |
| 2026-05-05 00:17 | 35.32421 | -90.22087 | 4959 ft | 244 kts | 108° |
| 2026-05-05 00:17 | 35.32048 | -90.20143 | 4959 ft | 229 kts | 108° |
| 2026-05-05 00:17 | 35.31683 | -90.18223 | 4965 ft | 233 kts | 108° |
| 2026-05-05 00:17 | 35.31315 | -90.16280 | 4971 ft | 235 kts | 108° |
| 2026-05-05 00:18 | 35.30945 | -90.14325 | 4972 ft | 236 kts | 108° |
| 2026-05-05 00:18 | 35.30569 | -90.12362 | 4977 ft | 237 kts | 108° |
| 2026-05-05 00:18 | 35.30189 | -90.10402 | 4975 ft | 237 kts | 108° |
| 2026-05-05 00:18 | 35.29812 | -90.08440 | 4982 ft | 237 kts | 108° |
| 2026-05-05 00:19 | 35.29436 | -90.06475 | 4988 ft | 237 kts | 108° |
| 2026-05-05 00:19 | 35.29028 | -90.04525 | 4963 ft | 235 kts | 113° |
| 2026-05-05 00:19 | 35.28270 | -90.02783 | 4687 ft | 230 kts | 133° |
| 2026-05-05 00:19 | 35.27114 | -90.01460 | 4227 ft | 223 kts | 147° |
| 2026-05-05 00:20 | 35.25827 | -90.00575 | 4173 ft | 210 kts | 158° |
| 2026-05-05 00:20 | 35.24498 | -89.99805 | 4088 ft | 212 kts | 163° |
| 2026-05-05 00:20 | 35.23109 | -89.99206 | 3906 ft | 211 kts | 165° |
| 2026-05-05 00:20 | 35.21703 | -89.98827 | 3838 ft | 207 kts | 177° |
| 2026-05-05 00:21 | 35.20266 | -89.98715 | 3760 ft | 207 kts | 180° |
| 2026-05-05 00:21 | 35.18941 | -89.98670 | 3362 ft | 175 kts | 183° |
| 2026-05-05 00:21 | 35.17813 | -89.98756 | 3065 ft | 151 kts | 190° |
| 2026-05-05 00:21 | 35.16752 | -89.98826 | 2830 ft | 156 kts | 186° |
| 2026-05-05 00:22 | 35.15667 | -89.98886 | 2417 ft | 160 kts | 186° |
| 2026-05-05 00:22 | 35.14572 | -89.98912 | 2110 ft | 153 kts | 185° |
| 2026-05-05 00:22 | 35.13608 | -89.98889 | 2000 ft | 126 kts | 182° |
| 2026-05-05 00:22 | 35.12788 | -89.98853 | 1872 ft | 108 kts | 186° |
| 2026-05-05 00:23 | 35.12045 | -89.98871 | 1779 ft | 108 kts | 187° |
| 2026-05-05 00:23 | 35.11306 | -89.98840 | 1656 ft | 107 kts | 184° |
| 2026-05-05 00:23 | 35.10545 | -89.98852 | 1515 ft | 108 kts | 185° |
| 2026-05-05 00:23 | 35.09791 | -89.98856 | 1416 ft | 109 kts | 181° |
| 2026-05-05 00:24 | 35.09036 | -89.98838 | 1303 ft | 110 kts | 184° |
| 2026-05-05 00:24 | 35.08249 | -89.98815 | 1141 ft | 118 kts | 183° |
| 2026-05-05 00:24 | 35.07428 | -89.98787 | 1036 ft | 115 kts | 181° |
| 2026-05-05 00:24 | 35.06628 | -89.98743 | 799 ft | 110 kts | 179° |
| 2026-05-05 00:25 | 35.05862 | -89.98756 | 604 ft | 112 kts | 181° |
| 2026-05-05 00:25 | 35.05112 | -89.98746 | 438 ft | 105 kts | 183° |
| 2026-05-05 00:25 | 35.04417 | -89.98727 | 332 ft | 90 kts | 182° |
| 2026-05-05 00:25 | 35.04016 | -89.98722 | 327 ft | 34 kts | 180° |
| 2026-05-05 00:26 | 35.03777 | -89.98716 | 330 ft | 29 kts | 178° |
| 2026-05-05 00:26 | 35.03667 | -89.98626 | 330 ft | 18 kts | 79° |
| 2026-05-05 00:26 | 35.03763 | -89.98587 | 329 ft | 19 kts | 359° |
| 2026-05-05 00:26 | 35.03864 | -89.98556 | 329 ft | 24 kts | 41° |
| 2026-05-05 00:27 | 35.04064 | -89.98495 | 329 ft | 26 kts | 359° |
| 2026-05-05 00:27 | 35.04165 | -89.98405 | 329 ft | 11 kts | 53° |
| 2026-05-05 00:27 | 35.04212 | -89.98347 | 329 ft | 9 kts | 39° |
| 2026-05-05 00:27 | 35.04254 | -89.98296 | 329 ft | 6 kts | 34° |
| 2026-05-05 00:28 | 35.04283 | -89.98277 | 329 ft | 10 kts | 21° |
| 2026-05-05 00:28 | 35.04334 | -89.98265 | 329 ft | 1 kts | 2° |
| 2026-05-05 00:28 | 35.04344 | -89.98264 | 329 ft | 7 kts | 9° |
| 2026-05-05 00:28 | 35.04361 | -89.98217 | 329 ft | 3 kts | 89° |